createdAt,value
2022-12-16T00:01:32.223Z,85.15
2022-12-16T00:04:00.155Z,94.07
2022-12-16T00:06:28.743Z,83.90
2022-12-16T00:08:57.034Z,91.47
2022-12-16T00:11:24.663Z,74.80
2022-12-16T00:13:52.273Z,86.80
2022-12-16T00:16:20.883Z,80.88
2022-12-16T00:18:48.742Z,91.93
2022-12-16T00:21:18.863Z,85.15
2022-12-16T00:23:46.625Z,80.22
2022-12-16T00:26:14.646Z,87.20
2022-12-16T00:28:44.092Z,89.57
2022-12-16T00:31:12.375Z,83.93
2022-12-16T00:33:40.223Z,81.28
2022-12-16T00:36:08.044Z,88.22
2022-12-16T00:38:36.090Z,63.30
2022-12-16T00:41:03.726Z,88.18
2022-12-16T00:43:32.037Z,84.47
2022-12-16T00:45:59.857Z,90.40
2022-12-16T00:48:27.239Z,94.07
2022-12-16T00:50:55.656Z,91.03
2022-12-16T00:53:24.349Z,87.13
2022-12-16T00:55:52.243Z,82.03
2022-12-16T00:58:19.897Z,83.88
2022-12-16T01:00:47.529Z,87.50
2022-12-16T01:03:21.115Z,85.45
2022-12-16T01:05:49.245Z,90.43
2022-12-16T01:08:17.022Z,92.28
2022-12-16T01:10:50.424Z,92.97
2022-12-16T01:13:18.133Z,87.53
2022-12-16T01:15:45.696Z,79.68
2022-12-16T01:18:13.435Z,78.57
2022-12-16T01:20:41.105Z,62.55
2022-12-16T01:23:09.308Z,78.25
2022-12-16T01:25:36.983Z,91.97
2022-12-16T01:28:04.548Z,82.47
2022-12-16T01:30:32.348Z,103.05
2022-12-16T01:32:59.806Z,92.65
2022-12-16T01:35:52.593Z,84.72
2022-12-16T01:38:15.751Z,92.15
2022-12-16T01:40:43.244Z,94.00
2022-12-16T01:43:12.556Z,91.78
2022-12-16T01:45:40.139Z,94.00
2022-12-16T01:48:27.630Z,90.45
2022-12-16T01:50:58.633Z,100.80
2022-12-16T01:53:26.102Z,95.47
2022-12-16T01:55:54.371Z,90.68
2022-12-16T01:58:23.951Z,102.93
2022-12-16T02:00:51.751Z,82.28
2022-12-16T02:03:19.498Z,90.13
2022-12-16T02:05:47.927Z,101.20
2022-12-16T02:08:35.279Z,90.55
2022-12-16T02:11:22.941Z,96.03
2022-12-16T02:14:10.369Z,97.95
2022-12-16T02:16:57.775Z,87.28
2022-12-16T02:19:45.349Z,93.85
2022-12-16T02:22:32.787Z,103.70
2022-12-16T02:25:20.267Z,93.90
2022-12-16T02:27:59.937Z,100.00
2022-12-16T02:30:47.220Z,86.35
2022-12-16T02:33:35.041Z,97.43
2022-12-16T02:36:23.158Z,96.50
2022-12-16T02:38:56.858Z,98.47
2022-12-16T02:41:33.260Z,101.63
2022-12-16T02:44:09.115Z,107.10
2022-12-16T02:46:45.291Z,113.40
2022-12-16T02:49:32.814Z,95.25
2022-12-16T02:52:01.895Z,105.50
2022-12-16T02:54:29.984Z,95.50
2022-12-16T02:57:17.472Z,94.63
2022-12-16T03:00:04.912Z,99.82
2022-12-16T03:02:52.509Z,95.40
2022-12-16T03:05:25.203Z,97.10
2022-12-16T03:07:53.493Z,90.75
2022-12-16T03:10:22.734Z,106.95
2022-12-16T03:12:50.249Z,98.20
2022-12-16T03:15:20.095Z,94.03
2022-12-16T03:17:49.138Z,97.57
2022-12-16T03:20:19.356Z,107.88
2022-12-16T03:22:48.045Z,99.28
2022-12-16T03:25:15.957Z,82.50
2022-12-16T03:28:04.232Z,98.28
2022-12-16T03:30:35.994Z,97.85
2022-12-16T03:33:10.552Z,102.88
2022-12-16T03:35:40.281Z,104.97
2022-12-16T03:38:09.944Z,96.90
2022-12-16T03:40:39.024Z,97.97
2022-12-16T03:43:07.019Z,96.15
2022-12-16T03:45:38.402Z,122.38
2022-12-16T03:48:08.592Z,111.05
2022-12-16T03:50:36.489Z,113.50
2022-12-16T03:53:04.435Z,109.68
2022-12-16T03:55:32.223Z,119.40
2022-12-16T03:57:59.687Z,108.03
2022-12-16T04:00:27.059Z,114.18
2022-12-16T04:02:54.717Z,99.68
2022-12-16T04:05:22.437Z,97.75
2022-12-16T04:07:49.879Z,96.63
2022-12-16T04:10:17.535Z,104.72
2022-12-16T04:13:04.737Z,90.93
2022-12-16T04:15:52.122Z,100.78
2022-12-16T04:18:40.746Z,96.63
2022-12-16T04:21:28.031Z,106.88
2022-12-16T04:24:17.746Z,98.97
2022-12-16T04:27:04.943Z,102.53
2022-12-16T04:29:32.554Z,110.30
2022-12-16T04:32:00.695Z,102.35
2022-12-16T04:34:29.472Z,107.28
2022-12-16T04:37:19.250Z,97.93
2022-12-16T04:40:06.761Z,96.45
2022-12-16T04:42:54.107Z,101.72
2022-12-16T04:45:41.493Z,96.05
2022-12-16T04:48:28.884Z,102.78
2022-12-16T04:51:16.196Z,101.50
2022-12-16T04:54:03.504Z,108.28
2022-12-16T04:56:50.829Z,112.07
2022-12-16T04:59:38.116Z,107.07
2022-12-16T05:02:25.602Z,100.53
2022-12-16T05:05:13.089Z,106.60
2022-12-16T05:08:00.895Z,112.05
2022-12-16T05:10:48.181Z,104.57
2022-12-16T05:13:35.671Z,111.32
2022-12-16T05:16:23.152Z,108.07
2022-12-16T05:19:10.488Z,109.50
2022-12-16T05:21:57.702Z,107.25
2022-12-16T05:24:48.536Z,102.63
2022-12-16T05:27:39.951Z,105.10
2022-12-16T05:30:33.400Z,95.78
2022-12-16T05:33:21.069Z,100.22
2022-12-16T05:36:08.605Z,108.57
2022-12-16T05:38:55.930Z,110.18
2022-12-16T05:41:43.251Z,122.85
2022-12-16T05:44:30.502Z,120.28
2022-12-16T05:47:17.889Z,107.55
2022-12-16T05:50:05.276Z,122.03
2022-12-16T05:52:52.571Z,118.68
2022-12-16T05:55:39.788Z,111.43
2022-12-16T05:58:27.162Z,121.45
2022-12-16T06:01:14.466Z,139.27
2022-12-16T06:04:01.953Z,144.38
2022-12-16T06:06:49.440Z,121.47
2022-12-16T06:09:36.748Z,110.30
2022-12-16T06:12:24.962Z,114.47
2022-12-16T06:15:12.335Z,116.35
2022-12-16T06:18:02.906Z,108.97
2022-12-16T06:20:50.285Z,114.18
2022-12-16T06:23:37.742Z,122.70
2022-12-16T06:26:25.480Z,122.43
2022-12-16T06:29:12.804Z,113.22
2022-12-16T06:32:00.209Z,98.65
2022-12-16T06:34:47.562Z,115.32
2022-12-16T06:37:34.893Z,95.63
2022-12-16T06:40:22.273Z,122.72
2022-12-16T06:43:09.573Z,124.90
2022-12-16T06:45:57.010Z,109.65
2022-12-16T06:48:44.344Z,129.05
2022-12-16T06:51:31.647Z,120.20
2022-12-16T06:54:39.174Z,112.38
2022-12-16T06:57:26.415Z,132.95
2022-12-16T07:00:13.687Z,127.13
2022-12-16T07:03:01.026Z,127.93
2022-12-16T07:05:48.493Z,227.13
2022-12-16T07:08:35.785Z,149.98
2022-12-16T07:11:23.071Z,256.77
2022-12-16T07:14:10.438Z,143.20
2022-12-16T07:16:58.019Z,109.68
2022-12-16T07:19:45.289Z,109.72
2022-12-16T07:22:32.648Z,127.30
2022-12-16T07:25:19.934Z,108.60
2022-12-16T07:28:13.693Z,113.20
2022-12-16T07:31:03.542Z,113.95
2022-12-16T07:33:50.925Z,108.82
2022-12-16T07:36:38.255Z,105.10
2022-12-16T07:39:25.959Z,128.90
2022-12-16T07:42:13.196Z,115.63
2022-12-16T07:45:00.544Z,114.45
2022-12-16T07:47:47.815Z,109.68
2022-12-16T07:50:35.132Z,123.60
2022-12-16T07:53:22.509Z,129.02
2022-12-16T07:56:09.831Z,116.47
2022-12-16T07:58:57.189Z,117.82
2022-12-16T08:01:44.641Z,118.20
2022-12-16T08:04:32.076Z,113.75
2022-12-16T08:07:19.371Z,127.32
2022-12-16T08:10:06.650Z,110.40
2022-12-16T08:12:54.017Z,133.80
2022-12-16T08:15:41.299Z,133.50
2022-12-16T08:18:28.520Z,135.63
2022-12-16T08:21:16.447Z,135.07
2022-12-16T08:24:03.678Z,129.40
2022-12-16T08:26:51.018Z,131.90
2022-12-16T08:29:45.760Z,132.30
2022-12-16T08:32:33.957Z,120.20
2022-12-16T08:35:21.662Z,114.88
2022-12-16T08:38:13.836Z,117.93
2022-12-16T08:41:01.994Z,118.30
2022-12-16T08:43:51.535Z,138.98
2022-12-16T08:46:39.174Z,121.47
2022-12-16T08:49:26.790Z,129.10
2022-12-16T08:52:14.444Z,140.75
2022-12-16T08:55:01.703Z,127.50
2022-12-16T08:57:49.065Z,110.50
2022-12-16T09:00:36.552Z,119.70
2022-12-16T09:03:24.413Z,119.93
2022-12-16T09:06:11.734Z,91.45
2022-12-16T09:08:59.015Z,104.07
2022-12-16T09:11:46.339Z,105.85
2022-12-16T09:14:33.626Z,105.05
2022-12-16T09:17:21.006Z,96.75
2022-12-16T09:20:08.306Z,103.72
2022-12-16T09:22:55.624Z,111.35
2022-12-16T09:25:42.909Z,117.72
2022-12-16T09:28:30.149Z,125.47
2022-12-16T09:31:17.467Z,109.38
2022-12-16T09:34:04.804Z,118.40
2022-12-16T09:36:52.031Z,116.32
2022-12-16T09:39:40.003Z,117.03
2022-12-16T09:42:47.120Z,108.40
2022-12-16T09:45:44.719Z,128.00
2022-12-16T09:48:35.796Z,109.55
2022-12-16T09:51:24.722Z,109.97
2022-12-16T09:54:13.032Z,114.88
2022-12-16T09:57:00.380Z,112.25
2022-12-16T09:59:50.829Z,112.65
2022-12-16T10:02:39.246Z,113.38
2022-12-16T10:05:31.920Z,113.55
2022-12-16T10:08:39.090Z,111.53
2022-12-16T10:11:39.223Z,116.05
2022-12-16T10:14:30.296Z,113.95
2022-12-16T10:17:27.993Z,141.43
2022-12-16T10:20:35.062Z,103.03
2022-12-16T10:23:42.161Z,107.13
2022-12-16T10:26:35.484Z,91.28
2022-12-16T10:29:31.897Z,91.93
2022-12-16T10:32:19.345Z,102.75
2022-12-16T10:35:06.986Z,103.00
2022-12-16T10:37:55.558Z,103.65
2022-12-16T10:40:45.314Z,89.50
2022-12-16T10:43:36.027Z,99.60
2022-12-16T10:46:26.829Z,95.53
2022-12-16T10:49:14.197Z,112.32
2022-12-16T10:52:05.411Z,122.25
2022-12-16T10:55:01.158Z,127.53
2022-12-16T10:58:08.305Z,92.32
2022-12-16T11:01:15.841Z,126.00
2022-12-16T11:04:03.307Z,104.30
2022-12-16T11:06:59.357Z,106.00
2022-12-16T11:09:51.245Z,105.83
2022-12-16T11:12:58.352Z,106.95
2022-12-16T11:15:48.108Z,112.65
2022-12-16T11:18:37.142Z,108.10
2022-12-16T11:21:25.759Z,110.60
2022-12-16T11:24:25.876Z,116.65
2022-12-16T11:27:14.041Z,115.28
2022-12-16T11:30:10.765Z,120.05
2022-12-16T11:32:58.686Z,114.80
2022-12-16T11:35:47.956Z,106.38
2022-12-16T11:38:44.552Z,113.25
2022-12-16T11:41:37.104Z,100.05
2022-12-16T11:44:24.814Z,100.88
2022-12-16T11:47:12.494Z,100.82
2022-12-16T11:49:59.877Z,91.95
2022-12-16T11:52:47.264Z,91.15
2022-12-16T11:56:05.823Z,93.47
2022-12-16T11:59:14.976Z,96.18
2022-12-16T12:02:20.225Z,88.20
2022-12-16T12:05:10.012Z,101.15
2022-12-16T12:08:11.578Z,128.18
2022-12-16T12:11:18.774Z,99.45
2022-12-16T12:14:25.816Z,96.70
2022-12-16T12:17:23.558Z,114.47
2022-12-16T12:20:30.714Z,109.63
2022-12-16T12:23:23.327Z,194.30
2022-12-16T12:26:30.437Z,97.40
2022-12-16T12:29:37.668Z,96.10
2022-12-16T12:32:44.898Z,148.38
2022-12-16T12:35:41.067Z,126.95
2022-12-16T12:41:35.263Z,113.88
2022-12-16T12:44:36.461Z,177.00
2022-12-16T12:47:31.265Z,116.95
2022-12-16T12:50:23.888Z,118.93
2022-12-16T12:53:31.416Z,144.48
2022-12-16T12:56:26.632Z,157.65
2022-12-16T12:59:15.879Z,144.50
2022-12-16T13:02:04.424Z,131.15
2022-12-16T13:04:53.424Z,128.95
2022-12-16T13:07:41.031Z,127.07
2022-12-16T13:10:48.170Z,124.30
2022-12-16T13:13:53.974Z,139.65
2022-12-16T13:17:02.866Z,151.77
2022-12-16T13:20:09.484Z,158.60
2022-12-16T13:22:57.534Z,148.90
2022-12-16T13:26:04.718Z,162.85
2022-12-16T13:28:53.717Z,150.55
2022-12-16T13:31:41.381Z,158.65
2022-12-16T13:34:45.132Z,154.27
2022-12-16T13:37:44.076Z,170.73
2022-12-16T13:40:51.284Z,152.43
2022-12-16T13:43:58.505Z,148.00
2022-12-16T13:46:59.609Z,166.88
2022-12-16T13:50:06.761Z,156.20
2022-12-16T13:53:14.296Z,153.00
2022-12-16T13:56:05.711Z,153.18
2022-12-16T13:58:58.946Z,133.70
2022-12-16T14:01:57.509Z,163.65
2022-12-16T14:04:49.355Z,143.13
2022-12-16T14:07:37.992Z,146.93
2022-12-16T14:10:25.875Z,147.75
2022-12-16T14:13:17.581Z,142.77
2022-12-16T14:16:24.719Z,146.65
2022-12-16T14:19:32.108Z,131.30
2022-12-16T14:22:39.226Z,138.52
2022-12-16T14:25:28.645Z,137.18
2022-12-16T14:28:15.887Z,130.98
2022-12-16T14:31:03.249Z,121.88
2022-12-16T14:33:50.766Z,128.63
2022-12-16T14:36:58.097Z,122.72
2022-12-16T14:40:00.917Z,114.63
2022-12-16T14:42:49.263Z,117.43
2022-12-16T14:45:42.428Z,120.97
2022-12-16T14:48:35.270Z,126.38
2022-12-16T14:51:42.376Z,119.05
2022-12-16T14:54:49.506Z,134.40
2022-12-16T14:57:38.402Z,169.93
2022-12-16T15:00:45.648Z,159.50
2022-12-16T15:03:42.292Z,121.70
2022-12-16T15:06:34.826Z,104.38
2022-12-16T15:09:25.053Z,118.78
2022-12-16T15:12:13.521Z,108.32
2022-12-16T15:15:01.779Z,116.85
2022-12-16T15:17:56.839Z,112.82
2022-12-16T15:20:47.426Z,125.38
2022-12-16T15:23:43.196Z,113.20
2022-12-16T15:26:30.992Z,112.03
2022-12-16T15:29:18.259Z,105.25
2022-12-16T15:32:05.598Z,101.97
2022-12-16T15:35:07.430Z,108.28
2022-12-16T15:38:04.105Z,97.75
2022-12-16T15:40:52.881Z,93.43
2022-12-16T15:43:42.297Z,97.50
2022-12-16T15:46:37.249Z,91.50
2022-12-16T15:49:24.809Z,109.88
2022-12-16T15:52:12.443Z,97.95
2022-12-16T15:55:15.392Z,108.68
2022-12-16T15:58:15.840Z,117.10
2022-12-16T16:01:16.941Z,96.15
2022-12-16T16:04:12.670Z,92.00
2022-12-16T16:07:02.121Z,83.07
2022-12-16T16:09:51.000Z,90.32
2022-12-16T16:12:40.416Z,90.13
2022-12-16T16:15:29.503Z,86.63
2022-12-16T16:18:18.341Z,65.32
2022-12-16T16:21:05.802Z,80.40
2022-12-16T16:23:53.187Z,81.13
2022-12-16T16:26:41.855Z,70.00
2022-12-16T16:29:30.793Z,87.53
2022-12-16T16:32:18.046Z,76.88
2022-12-16T16:35:05.360Z,77.20
2022-12-16T16:37:52.868Z,77.88
2022-12-16T16:40:47.879Z,85.47
2022-12-16T16:43:35.583Z,80.35
2022-12-16T16:46:23.616Z,72.60
2022-12-16T16:49:10.895Z,64.65
2022-12-16T16:51:58.160Z,80.70
2022-12-16T16:54:45.655Z,79.63
2022-12-16T16:57:34.076Z,86.72
2022-12-16T17:00:21.497Z,78.65
2022-12-16T17:03:08.952Z,72.53
2022-12-16T17:05:56.469Z,60.50
2022-12-16T17:08:43.706Z,62.70
2022-12-16T17:11:37.387Z,72.10
2022-12-16T17:14:24.817Z,74.70
2022-12-16T17:17:12.104Z,71.07
2022-12-16T17:19:59.411Z,74.05
2022-12-16T17:22:46.790Z,62.92
2022-12-16T17:25:34.486Z,59.83
2022-12-16T17:28:22.013Z,68.18
2022-12-16T17:31:09.493Z,72.45
2022-12-16T17:33:56.923Z,72.65
2022-12-16T17:36:44.297Z,79.55
2022-12-16T17:39:31.881Z,74.65
2022-12-16T17:42:19.149Z,81.53
2022-12-16T17:45:07.498Z,81.60
2022-12-16T17:47:54.723Z,80.72
2022-12-16T17:50:42.086Z,83.28
2022-12-16T17:53:29.372Z,78.15
2022-12-16T17:56:16.646Z,69.78
2022-12-16T17:59:05.826Z,69.80
2022-12-16T18:01:53.398Z,74.47
2022-12-16T18:04:40.865Z,70.22
2022-12-16T18:07:28.136Z,68.38
2022-12-16T18:10:15.435Z,73.38
2022-12-16T18:13:02.831Z,75.65
2022-12-16T18:15:50.195Z,69.85
2022-12-16T18:18:40.402Z,74.50
2022-12-16T18:21:36.208Z,79.45
2022-12-16T18:24:26.584Z,72.05
2022-12-16T18:27:14.107Z,79.43
2022-12-16T18:30:01.381Z,80.13
2022-12-16T18:32:48.642Z,78.43
2022-12-16T18:35:35.959Z,77.25
2022-12-16T18:38:23.300Z,70.72
2022-12-16T18:41:10.668Z,72.47
2022-12-16T18:43:57.929Z,80.72
2022-12-16T18:46:45.214Z,95.25
2022-12-16T18:49:32.452Z,83.15
2022-12-16T18:52:19.755Z,82.22
2022-12-16T18:55:06.985Z,84.35
2022-12-16T18:57:54.258Z,77.63
2022-12-16T19:00:41.682Z,76.30
2022-12-16T19:03:29.043Z,79.45
2022-12-16T19:06:17.017Z,79.80
2022-12-16T19:09:04.286Z,75.60
2022-12-16T19:11:51.632Z,83.40
2022-12-16T19:14:38.861Z,64.68
2022-12-16T19:17:26.103Z,78.28
2022-12-16T19:20:13.402Z,73.18
2022-12-16T19:23:00.768Z,71.13
2022-12-16T19:25:48.305Z,71.25
2022-12-16T19:28:36.826Z,65.57
2022-12-16T19:31:28.213Z,64.72
2022-12-16T19:34:19.804Z,64.07
2022-12-16T19:37:07.117Z,67.28
2022-12-16T19:39:56.772Z,73.05
2022-12-16T19:42:44.390Z,60.42
2022-12-16T19:45:31.734Z,66.57
2022-12-16T19:48:22.887Z,57.20
2022-12-16T19:51:10.194Z,58.13
2022-12-16T19:53:57.762Z,58.30
2022-12-16T19:56:45.534Z,54.95
2022-12-16T19:59:32.808Z,50.08
2022-12-16T20:02:20.120Z,54.13
2022-12-16T20:05:07.748Z,55.63
2022-12-16T20:07:56.333Z,47.58
2022-12-16T20:10:43.922Z,52.22
2022-12-16T20:13:32.185Z,49.67
2022-12-16T20:16:23.350Z,52.03
2022-12-16T20:19:10.653Z,48.22
2022-12-16T20:22:00.703Z,80.07
2022-12-16T20:24:52.016Z,58.58
2022-12-16T20:27:39.459Z,72.25
2022-12-16T20:30:27.168Z,87.75
2022-12-16T20:33:14.489Z,66.65
2022-12-16T20:36:02.133Z,63.15
2022-12-16T20:38:49.556Z,64.13
2022-12-16T20:41:37.004Z,78.07
2022-12-16T20:44:24.543Z,131.45
2022-12-16T20:47:12.067Z,112.47
2022-12-16T20:49:59.781Z,105.95
2022-12-16T20:52:47.491Z,106.30
2022-12-16T20:55:35.132Z,115.90
2022-12-16T20:58:22.633Z,129.27
2022-12-16T21:01:13.903Z,180.52
2022-12-16T21:04:01.620Z,376.20
2022-12-16T21:06:49.135Z,214.65
2022-12-16T21:09:36.503Z,176.68
2022-12-16T21:12:24.002Z,165.00
2022-12-16T21:15:11.312Z,183.27
2022-12-16T21:17:59.095Z,162.27
2022-12-16T21:20:46.444Z,116.05
2022-12-16T21:23:33.810Z,94.68
2022-12-16T21:26:21.136Z,88.38
2022-12-16T21:29:08.973Z,87.53
2022-12-16T21:31:56.767Z,83.20
2022-12-16T21:35:05.415Z,80.70
2022-12-16T21:37:53.190Z,91.90
2022-12-16T21:40:41.078Z,95.75
2022-12-16T21:43:28.443Z,96.93
2022-12-16T21:46:16.201Z,89.25
2022-12-16T21:49:03.850Z,87.38
2022-12-16T21:51:51.176Z,88.55
2022-12-16T21:54:39.232Z,79.35
2022-12-16T21:57:27.094Z,82.65
2022-12-16T22:00:20.400Z,75.43
2022-12-16T22:03:08.504Z,76.93
2022-12-16T22:05:56.929Z,81.22
2022-12-16T22:08:44.289Z,82.18
2022-12-16T22:11:32.108Z,81.80
2022-12-16T22:14:19.947Z,83.75
2022-12-16T22:17:07.785Z,87.35
2022-12-16T22:19:58.341Z,82.35
2022-12-16T22:22:46.106Z,77.00
2022-12-16T22:25:33.446Z,80.40
2022-12-16T22:28:20.848Z,76.93
2022-12-16T22:34:20.962Z,86.47
2022-12-16T22:37:08.235Z,90.00
2022-12-16T22:39:56.365Z,93.60
2022-12-16T22:42:43.985Z,84.63
2022-12-16T22:45:32.267Z,119.25
2022-12-16T22:48:20.099Z,108.25
2022-12-16T22:51:08.267Z,104.05
2022-12-16T22:53:56.409Z,123.50
2022-12-16T22:56:44.971Z,178.90
2022-12-16T22:59:33.621Z,114.50
2022-12-16T23:02:21.940Z,114.93
2022-12-16T23:05:09.540Z,126.18
2022-12-16T23:07:57.981Z,131.50
2022-12-16T23:10:45.610Z,137.15
2022-12-16T23:13:33.737Z,122.32
2022-12-16T23:16:21.139Z,114.50
2022-12-16T23:19:08.688Z,141.25
2022-12-16T23:21:59.951Z,150.95
2022-12-16T23:24:50.182Z,145.85
2022-12-16T23:27:38.284Z,152.85
2022-12-16T23:30:26.316Z,153.18
2022-12-16T23:32:30.621Z,70.40
2022-12-16T23:33:17.917Z,145.80
2022-12-16T23:36:05.319Z,152.88
2022-12-16T23:38:53.480Z,145.82
2022-12-16T23:41:41.007Z,153.48
2022-12-16T23:44:28.255Z,157.65
2022-12-16T23:47:15.624Z,145.88
2022-12-16T23:50:02.981Z,154.02
2022-12-16T23:52:50.228Z,144.85
2022-12-16T23:55:37.790Z,140.88
2022-12-16T23:58:26.050Z,129.90
